Time;durP1;ratioP1;P1;durP2;ratioP2;P2;SDS_P1;SDS_P2;PMS_P1;PMS_P2;Temp;Humidity;BMP_temperature;BMP_pressure;BME280_temperature;BME280_humidity;BME280_pressure;Samples;Min_cycle;Max_cycle;Signal;HPM_P1;HPM_P2
2021/12/08 00:00:57;;;;;;;47.55;26.92;;;;;;;;;;5077006;28;20035;-66
2021/12/08 00:03:24;;;;;;;48.22;26.13;;;;;;;;;;5075077;28;20032;-66
2021/12/08 00:05:50;;;;;;;41.97;23.20;;;;;;;;;;5076828;28;20079;-66
2021/12/08 00:08:17;;;;;;;39.28;24.48;;;;;;;;;;5076748;28;20032;-67
2021/12/08 00:13:18;;;;;;;40.88;23.88;;;;;;;;;;5076681;28;20037;-73
2021/12/08 00:15:45;;;;;;;44.85;25.15;;;;;;;;;;5076744;28;20039;-74
2021/12/08 00:18:16;;;;;;;43.47;23.52;;;;;;;;;;5076370;28;20063;-73
2021/12/08 00:20:43;;;;;;;44.00;25.45;;;;;;;;;;5076845;28;20079;-73
2021/12/08 00:23:09;;;;;;;48.22;25.20;;;;;;;;;;5058556;28;20033;-74
2021/12/08 00:25:35;;;;;;;38.58;21.73;;;;;;;;;;5058734;28;20041;-73
2021/12/08 00:28:03;;;;;;;42.70;24.85;;;;;;;;;;5076584;28;20021;-75
2021/12/08 00:30:29;;;;;;;43.55;23.92;;;;;;;;;;5076146;28;20094;-73
2021/12/08 00:32:57;;;;;;;41.70;23.42;;;;;;;;;;5076184;28;20024;-73
2021/12/08 00:35:23;;;;;;;66.90;28.95;;;;;;;;;;5076250;28;20063;-73
2021/12/08 00:37:49;;;;;;;42.83;23.00;;;;;;;;;;5076020;28;20033;-74
2021/12/08 00:40:16;;;;;;;35.85;20.10;;;;;;;;;;5076183;28;20501;-74
2021/12/08 00:42:41;;;;;;;45.90;22.92;;;;;;;;;;5076493;28;20024;-73
2021/12/08 00:45:08;;;;;;;38.55;20.92;;;;;;;;;;5076312;28;20028;-73
2021/12/08 00:47:33;;;;;;;38.47;22.95;;;;;;;;;;5075931;28;20107;-73
2021/12/08 00:49:59;;;;;;;42.65;21.77;;;;;;;;;;5076018;28;20446;-72
2021/12/08 00:52:29;;;;;;;41.90;21.80;;;;;;;;;;5076348;28;20025;-73
2021/12/08 00:54:55;;;;;;;42.03;22.40;;;;;;;;;;5075632;28;20044;-72
2021/12/08 00:57:22;;;;;;;44.67;22.23;;;;;;;;;;5076057;28;20033;-73
2021/12/08 00:59:49;;;;;;;43.67;22.10;;;;;;;;;;5075751;28;20036;-72
2021/12/08 01:02:14;;;;;;;42.22;21.73;;;;;;;;;;5075755;28;20024;-73
2021/12/08 01:04:39;;;;;;;40.80;22.13;;;;;;;;;;5058013;28;20112;-73
2021/12/08 01:07:05;;;;;;;40.83;21.75;;;;;;;;;;5075610;28;20024;-66
2021/12/08 01:09:31;;;;;;;42.20;22.38;;;;;;;;;;5074507;28;20470;-66
2021/12/08 01:11:59;;;;;;;45.55;21.88;;;;;;;;;;5075564;28;20458;-66
2021/12/08 01:14:24;;;;;;;49.53;25.13;;;;;;;;;;5074287;28;20037;-66
2021/12/08 01:16:51;;;;;;;68.05;31.25;;;;;;;;;;5057431;28;20036;-64
2021/12/08 01:19:17;;;;;;;54.97;26.65;;;;;;;;;;5075327;28;20067;-65
2021/12/08 01:21:42;;;;;;;42.10;20.98;;;;;;;;;;5075219;28;20024;-63
2021/12/08 01:24:07;;;;;;;53.67;27.13;;;;;;;;;;5075254;28;20612;-65
2021/12/08 01:26:33;;;;;;;52.75;25.05;;;;;;;;;;5075075;28;20029;-65
2021/12/08 01:28:58;;;;;;;44.72;20.10;;;;;;;;;;5075198;28;20043;-67
2021/12/08 01:31:24;;;;;;;56.47;23.27;;;;;;;;;;5075381;28;20090;-67
2021/12/08 01:33:50;;;;;;;42.28;21.40;;;;;;;;;;5075161;28;20028;-67
2021/12/08 01:36:16;;;;;;;45.55;23.77;;;;;;;;;;5075224;28;20075;-68
2021/12/08 01:38:46;;;;;;;52.78;24.08;;;;;;;;;;5073934;28;20044;-64
2021/12/08 01:41:11;;;;;;;47.43;21.70;;;;;;;;;;5075017;28;20097;-66
2021/12/08 01:45:56;;;;;;;50.40;21.67;;;;;;;;;;5074952;28;20679;-75
2021/12/08 01:46:25;;;;;;;52.00;24.77;;;;;;;;;;5074644;28;20052;-73
2021/12/08 01:48:51;;;;;;;41.72;21.95;;;;;;;;;;5056857;28;20036;-73
2021/12/08 01:51:17;;;;;;;42.97;21.60;;;;;;;;;;5074720;28;20039;-73
2021/12/08 01:53:44;;;;;;;38.47;21.50;;;;;;;;;;5074094;28;20043;-74
2021/12/08 01:56:10;;;;;;;40.33;19.90;;;;;;;;;;5075064;28;20131;-75
2021/12/08 01:58:36;;;;;;;42.40;21.67;;;;;;;;;;5074894;28;20056;-75
2021/12/08 02:01:04;;;;;;;33.78;19.70;;;;;;;;;;5074670;28;20068;-73
2021/12/08 02:03:30;;;;;;;36.10;20.42;;;;;;;;;;5074823;28;20141;-72
2021/12/08 02:05:56;;;;;;;40.45;20.90;;;;;;;;;;5073072;28;20462;-72
2021/12/08 02:08:24;;;;;;;39.40;21.30;;;;;;;;;;5074356;28;20051;-73
2021/12/08 02:10:50;;;;;;;37.42;19.50;;;;;;;;;;5074319;28;20170;-73
2021/12/08 02:13:16;;;;;;;34.97;18.02;;;;;;;;;;5056952;28;20485;-71
2021/12/08 02:15:42;;;;;;;37.42;20.15;;;;;;;;;;5074187;28;20071;-65
2021/12/08 02:18:09;;;;;;;29.67;16.45;;;;;;;;;;5073901;28;20114;-66
2021/12/08 02:20:35;;;;;;;33.15;18.20;;;;;;;;;;5074261;28;20051;-63
2021/12/08 02:23:00;;;;;;;40.47;20.65;;;;;;;;;;5074118;28;20017;-66
2021/12/08 02:25:26;;;;;;;40.88;21.48;;;;;;;;;;5074275;28;20032;-64
2021/12/08 02:27:53;;;;;;;45.80;20.38;;;;;;;;;;5074234;28;20032;-71
2021/12/08 02:30:30;;;;;;;33.50;17.65;;;;;;;;;;5074025;28;20487;-64
2021/12/08 02:46:48;;;;;;;29.30;16.25;;;;;;;;;;5073802;28;20115;-63
2021/12/08 02:49:14;;;;;;;27.63;16.23;;;;;;;;;;5073779;28;20098;-70
2021/12/08 02:51:40;;;;;;;25.85;14.75;;;;;;;;;;5073565;28;20486;-70
2021/12/08 02:54:06;;;;;;;31.13;16.23;;;;;;;;;;5073466;28;20446;-70
2021/12/08 02:56:31;;;;;;;27.67;15.48;;;;;;;;;;5073546;28;20036;-71
2021/12/08 02:58:57;;;;;;;28.33;16.48;;;;;;;;;;5072444;28;20052;-71
2021/12/08 03:01:23;;;;;;;28.77;14.63;;;;;;;;;;5055647;28;20111;-70
2021/12/08 03:03:48;;;;;;;30.17;15.98;;;;;;;;;;5073670;28;20047;-63
2021/12/08 03:06:14;;;;;;;29.67;16.40;;;;;;;;;;5073189;28;20035;-62
2021/12/08 03:08:39;;;;;;;30.63;16.52;;;;;;;;;;5073441;28;20044;-65
2021/12/08 03:11:04;;;;;;;29.58;16.13;;;;;;;;;;5072903;28;20040;-63
2021/12/08 03:13:37;;;;;;;29.98;16.38;;;;;;;;;;5073666;28;20494;-62
2021/12/08 03:16:03;;;;;;;29.27;15.25;;;;;;;;;;5073718;28;20045;-63
2021/12/08 03:18:34;;;;;;;30.27;17.20;;;;;;;;;;5073393;28;20032;-63
2021/12/08 03:21:00;;;;;;;32.53;16.98;;;;;;;;;;5073440;28;20037;-64
2021/12/08 03:23:33;;;;;;;32.28;16.73;;;;;;;;;;5073375;28;20024;-64
2021/12/08 03:26:01;;;;;;;30.15;16.83;;;;;;;;;;5073400;28;20119;-63
2021/12/08 03:28:32;;;;;;;34.00;16.52;;;;;;;;;;5073079;28;20032;-63
2021/12/08 03:31:09;;;;;;;174.85;116.18;;;;;;;;;;5073149;28;20098;-64
2021/12/08 03:33:35;;;;;;;101.97;75.72;;;;;;;;;;5077028;28;20123;-63
2021/12/08 03:36:00;;;;;;;83.82;73.78;;;;;;;;;;5077431;28;20059;-64
2021/12/08 03:38:26;;;;;;;29.20;16.92;;;;;;;;;;5059489;28;20051;-64
2021/12/08 03:40:52;;;;;;;28.77;17.10;;;;;;;;;;5077025;28;20110;-65
2021/12/08 03:43:18;;;;;;;41.63;29.80;;;;;;;;;;5077234;28;20036;-71
2021/12/08 03:45:47;;;;;;;29.13;17.75;;;;;;;;;;5077641;28;20352;-72
2021/12/08 03:48:20;;;;;;;28.52;18.20;;;;;;;;;;5077367;28;20047;-72
2021/12/08 03:50:45;;;;;;;30.98;17.70;;;;;;;;;;5059520;28;20044;-72
2021/12/08 03:53:12;;;;;;;27.65;15.15;;;;;;;;;;5076519;28;20119;-72
2021/12/08 03:55:45;;;;;;;24.83;15.48;;;;;;;;;;5077538;28;20048;-72
2021/12/08 03:58:12;;;;;;;22.58;13.75;;;;;;;;;;5076745;28;20047;-72
2021/12/08 04:00:38;;;;;;;21.63;14.60;;;;;;;;;;5077113;28;20352;-71
2021/12/08 04:03:06;;;;;;;19.80;14.02;;;;;;;;;;5076892;28;20125;-71
2021/12/08 04:05:46;;;;;;;18.83;11.95;;;;;;;;;;5059006;28;20029;-71
2021/12/08 04:08:19;;;;;;;23.38;14.05;;;;;;;;;;5076936;28;20037;-72
2021/12/08 04:10:45;;;;;;;21.40;11.90;;;;;;;;;;5058972;28;20476;-71
2021/12/08 04:13:11;;;;;;;19.17;12.02;;;;;;;;;;5076473;28;20032;-71
2021/12/08 04:15:37;;;;;;;23.80;13.27;;;;;;;;;;5076690;28;20040;-72
2021/12/08 04:18:02;;;;;;;19.90;12.38;;;;;;;;;;5076702;28;20021;-72
2021/12/08 04:20:33;;;;;;;24.80;14.00;;;;;;;;;;5076272;28;20467;-64
2021/12/08 04:22:58;;;;;;;;;;;;;;;;;;5076670;28;20472;-63
2021/12/08 04:25:25;;;;;;;20.17;12.50;;;;;;;;;;5076501;28;19995;-65
2021/12/08 04:27:52;;;;;;;24.10;13.88;;;;;;;;;;5076147;28;20050;-65
2021/12/08 04:30:38;;;;;;;25.13;13.90;;;;;;;;;;5076168;28;20058;-65
2021/12/08 04:33:04;;;;;;;24.77;14.80;;;;;;;;;;5048010;28;20045;-64
2021/12/08 04:35:30;;;;;;;26.88;15.82;;;;;;;;;;5058277;28;20115;-65
2021/12/08 04:37:59;;;;;;;26.45;15.23;;;;;;;;;;5075965;28;20372;-65
2021/12/08 04:45:37;;;;;;;25.98;14.18;;;;;;;;;;5075976;28;20083;-66
2021/12/08 04:48:16;;;;;;;22.63;13.88;;;;;;;;;;5076312;28;20049;-65
2021/12/08 04:51:12;;;;;;;24.13;13.93;;;;;;;;;;5075937;28;20045;-66
2021/12/08 05:07:02;;;;;;;27.35;15.20;;;;;;;;;;5056030;28;20021;-74
2021/12/08 05:09:33;;;;;;;29.52;17.30;;;;;;;;;;5055900;28;20045;-75
2021/12/08 05:12:16;;;;;;;25.08;14.43;;;;;;;;;;5055756;28;20045;-75
2021/12/08 05:15:01;;;;;;;25.27;13.93;;;;;;;;;;5055359;28;20055;-65
2021/12/08 05:17:38;;;;;;;27.80;15.45;;;;;;;;;;5055559;28;20037;-66
2021/12/08 05:20:10;;;;;;;28.95;16.77;;;;;;;;;;5054048;28;20044;-73
2021/12/08 05:22:38;;;;;;;27.63;17.17;;;;;;;;;;5037272;28;20075;-73
2021/12/08 05:25:06;;;;;;;27.23;14.95;;;;;;;;;;5055089;28;20032;-74
2021/12/08 05:27:39;;;;;;;24.63;13.63;;;;;;;;;;5054553;28;20036;-73
2021/12/08 05:30:06;;;;;;;26.25;15.50;;;;;;;;;;5055107;28;20091;-74
2021/12/08 05:32:33;;;;;;;27.58;15.63;;;;;;;;;;5054468;28;20028;-74
2021/12/08 05:35:00;;;;;;;29.45;16.60;;;;;;;;;;5053738;28;20090;-74
2021/12/08 05:37:25;;;;;;;29.58;17.55;;;;;;;;;;5054572;28;20482;-74
2021/12/08 05:39:52;;;;;;;53.33;28.50;;;;;;;;;;5054432;28;20033;-73
2021/12/08 05:42:19;;;;;;;37.80;23.27;;;;;;;;;;5053841;28;20032;-66
2021/12/08 05:44:45;;;;;;;32.92;17.33;;;;;;;;;;5053701;28;20032;-66
2021/12/08 05:47:13;;;;;;;36.20;21.35;;;;;;;;;;5054853;28;20044;-66
2021/12/08 05:49:39;;;;;;;30.02;16.25;;;;;;;;;;5054630;28;20107;-66
2021/12/08 05:52:06;;;;;;;33.53;20.02;;;;;;;;;;5055118;28;20472;-66
2021/12/08 05:54:33;;;;;;;31.75;18.48;;;;;;;;;;5065815;28;20525;-66
2021/12/08 05:57:05;;;;;;;31.58;18.25;;;;;;;;;;5075059;28;20044;-67
2021/12/08 05:59:31;;;;;;;38.45;20.00;;;;;;;;;;5056218;28;20119;-66
2021/12/08 06:02:08;;;;;;;35.10;18.77;;;;;;;;;;5074714;28;20446;-66
2021/12/08 06:04:35;;;;;;;30.05;17.35;;;;;;;;;;5074236;28;20170;-66
2021/12/08 06:07:00;;;;;;;33.70;18.50;;;;;;;;;;5074152;28;20028;-67
2021/12/08 06:09:27;;;;;;;34.85;18.65;;;;;;;;;;5074053;28;20364;-66
2021/12/08 06:11:52;;;;;;;33.92;20.70;;;;;;;;;;5074023;28;20090;-66
2021/12/08 06:14:19;;;;;;;32.80;18.10;;;;;;;;;;5074070;28;20048;-67
2021/12/08 06:16:45;;;;;;;31.70;16.98;;;;;;;;;;5073994;28;20032;-68
2021/12/08 06:19:11;;;;;;;30.77;17.90;;;;;;;;;;5073713;28;20052;-68
2021/12/08 06:21:37;;;;;;;36.70;20.10;;;;;;;;;;5073774;28;20028;-67
2021/12/08 06:24:04;;;;;;;36.47;20.25;;;;;;;;;;5073728;28;20090;-67
2021/12/08 06:26:30;;;;;;;39.60;19.40;;;;;;;;;;5073692;28;20024;-68
2021/12/08 06:28:57;;;;;;;40.45;21.73;;;;;;;;;;5073847;28;20040;-65
2021/12/08 06:31:24;;;;;;;38.63;23.50;;;;;;;;;;5073765;28;20020;-66
2021/12/08 06:33:50;;;;;;;67.30;29.35;;;;;;;;;;5073587;28;20036;-66
2021/12/08 06:36:20;;;;;;;63.88;30.02;;;;;;;;;;5055767;28;20029;-66
2021/12/08 06:38:46;;;;;;;28.63;16.52;;;;;;;;;;5073651;28;20111;-66
2021/12/08 06:41:32;;;;;;;43.10;22.58;;;;;;;;;;5073476;28;20024;-66
2021/12/08 06:44:00;;;;;;;29.92;17.65;;;;;;;;;;5072919;28;20056;-66
2021/12/08 06:46:26;;;;;;;41.67;23.60;;;;;;;;;;5073283;28;20040;-66
2021/12/08 06:48:53;;;;;;;29.85;19.50;;;;;;;;;;5073505;28;20054;-66
2021/12/08 06:51:21;;;;;;;25.98;16.40;;;;;;;;;;5073581;28;20436;-66
2021/12/08 06:53:48;;;;;;;26.40;16.08;;;;;;;;;;5072854;28;20041;-66
2021/12/08 06:56:19;;;;;;;28.38;17.88;;;;;;;;;;5073145;28;20540;-65
2021/12/08 06:58:47;;;;;;;23.73;15.27;;;;;;;;;;5055532;28;20036;-66
2021/12/08 07:04:14;;;;;;;26.27;16.25;;;;;;;;;;5073075;28;20127;-66
2021/12/08 07:06:59;;;;;;;17.77;12.85;;;;;;;;;;5072627;28;20461;-66
2021/12/08 07:09:30;;;;;;;25.65;13.30;;;;;;;;;;5073345;28;20044;-66
2021/12/08 07:11:57;;;;;;;31.55;18.25;;;;;;;;;;5073167;28;20490;-66
2021/12/08 07:14:24;;;;;;;27.85;16.92;;;;;;;;;;5073006;28;20040;-67
2021/12/08 07:16:51;;;;;;;25.70;15.98;;;;;;;;;;5073117;28;20075;-65
2021/12/08 07:19:28;;;;;;;25.67;14.90;;;;;;;;;;5073085;28;20047;-66
2021/12/08 07:21:56;;;;;;;26.05;15.02;;;;;;;;;;5073076;28;20071;-66
2021/12/08 07:24:24;;;;;;;28.52;16.13;;;;;;;;;;5073108;28;20028;-66
2021/12/08 07:26:50;;;;;;;31.35;16.15;;;;;;;;;;5073038;28;20498;-66
2021/12/08 07:29:17;;;;;;;35.30;19.27;;;;;;;;;;5072957;28;20059;-66
2021/12/08 07:31:46;;;;;;;28.15;16.40;;;;;;;;;;5071724;28;20033;-66
2021/12/08 07:34:17;;;;;;;25.33;14.27;;;;;;;;;;5072956;28;20036;-63
2021/12/08 07:36:45;;;;;;;28.48;15.52;;;;;;;;;;5072887;28;20032;-63
2021/12/08 07:39:16;;;;;;;28.48;14.55;;;;;;;;;;5072916;28;20025;-64
2021/12/08 07:41:45;;;;;;;26.13;15.10;;;;;;;;;;5072863;28;20518;-63
2021/12/08 07:44:13;;;;;;;22.63;14.20;;;;;;;;;;5071595;28;20035;-64
2021/12/08 07:46:38;;;;;;;26.58;14.05;;;;;;;;;;5072746;28;20361;-63
2021/12/08 07:49:09;;;;;;;27.45;16.08;;;;;;;;;;5072842;28;20158;-64
2021/12/08 07:51:39;;;;;;;27.35;16.17;;;;;;;;;;5072791;28;20037;-64
2021/12/08 07:54:05;;;;;;;26.80;15.50;;;;;;;;;;5072254;28;20469;-63
2021/12/08 07:56:34;;;;;;;24.85;11.82;;;;;;;;;;5072726;28;20045;-64
2021/12/08 07:59:02;;;;;;;20.52;11.32;;;;;;;;;;5072659;28;20020;-64
2021/12/08 08:01:30;;;;;;;28.92;16.00;;;;;;;;;;5072569;28;20049;-70
2021/12/08 08:03:57;;;;;;;25.73;14.82;;;;;;;;;;5072490;28;20035;-65
2021/12/08 08:06:25;;;;;;;26.98;15.77;;;;;;;;;;5072742;28;20068;-67
2021/12/08 08:08:51;;;;;;;28.05;16.75;;;;;;;;;;5072603;28;20021;-66
2021/12/08 08:11:21;;;;;;;23.52;14.82;;;;;;;;;;5072564;28;20036;-66
2021/12/08 08:13:47;;;;;;;39.53;21.42;;;;;;;;;;5072599;28;20128;-66
2021/12/08 08:16:15;;;;;;;30.25;14.95;;;;;;;;;;5072464;28;20056;-66
2021/12/08 08:18:42;;;;;;;38.08;19.63;;;;;;;;;;5074538;28;20080;-66
2021/12/08 08:21:10;;;;;;;34.65;17.65;;;;;;;;;;5076214;28;20028;-66
2021/12/08 08:23:36;;;;;;;22.83;12.18;;;;;;;;;;5076003;28;20479;-65
2021/12/08 08:26:02;;;;;;;17.15;8.07;;;;;;;;;;5058141;28;20025;-65
2021/12/08 08:28:28;;;;;;;36.85;18.67;;;;;;;;;;5076031;28;20033;-65
2021/12/08 08:31:04;;;;;;;17.33;9.15;;;;;;;;;;5075928;28;20353;-65
2021/12/08 08:33:31;;;;;;;33.05;17.83;;;;;;;;;;5075992;28;20035;-64
2021/12/08 08:36:03;;;;;;;29.27;16.17;;;;;;;;;;5075990;28;20028;-64
2021/12/08 08:38:32;;;;;;;31.08;15.57;;;;;;;;;;5075805;28;20090;-64
2021/12/08 08:41:05;;;;;;;32.72;19.50;;;;;;;;;;5075877;28;20424;-64
2021/12/08 08:43:30;;;;;;;29.70;17.45;;;;;;;;;;5075634;28;20036;-64
2021/12/08 08:45:59;;;;;;;30.42;16.55;;;;;;;;;;5075689;28;20078;-65
2021/12/08 08:48:27;;;;;;;36.50;21.27;;;;;;;;;;5075712;28;20043;-65
2021/12/08 08:50:58;;;;;;;32.90;17.13;;;;;;;;;;5075744;28;20043;-64
2021/12/08 08:53:27;;;;;;;37.00;19.33;;;;;;;;;;5075195;28;20043;-67
2021/12/08 08:55:58;;;;;;;39.22;20.80;;;;;;;;;;5075788;28;20064;-66
2021/12/08 08:58:25;;;;;;;51.35;33.17;;;;;;;;;;5075392;28;20119;-66
2021/12/08 09:01:13;;;;;;;45.35;28.88;;;;;;;;;;5075557;28;20094;-66
2021/12/08 09:03:41;;;;;;;60.53;27.20;;;;;;;;;;5075194;28;20045;-66
2021/12/08 09:06:11;;;;;;;54.10;28.08;;;;;;;;;;5075446;28;20170;-65
2021/12/08 09:08:38;;;;;;;38.78;21.75;;;;;;;;;;5057434;28;20535;-65
2021/12/08 09:11:06;;;;;;;40.50;21.45;;;;;;;;;;5075284;28;20035;-65
2021/12/08 09:13:38;;;;;;;40.65;20.75;;;;;;;;;;5075261;28;20044;-65
2021/12/08 09:16:09;;;;;;;32.78;18.48;;;;;;;;;;5057592;28;20040;-65
2021/12/08 09:18:44;;;;;;;39.08;21.23;;;;;;;;;;5075237;28;20544;-65
2021/12/08 09:21:18;;;;;;;37.33;19.83;;;;;;;;;;5075042;28;20086;-65
2021/12/08 09:23:45;;;;;;;37.47;17.77;;;;;;;;;;5074809;28;20036;-65
2021/12/08 09:26:13;;;;;;;38.30;17.90;;;;;;;;;;5074951;28;20032;-63
2021/12/08 09:28:41;;;;;;;38.15;19.95;;;;;;;;;;5075017;28;20032;-63
2021/12/08 09:31:10;;;;;;;50.00;26.83;;;;;;;;;;5074272;28;20033;-64
2021/12/08 09:33:39;;;;;;;42.80;21.83;;;;;;;;;;5074939;28;20064;-62
2021/12/08 09:36:18;;;;;;;41.60;20.58;;;;;;;;;;5074871;28;20482;-64
2021/12/08 09:39:07;;;;;;;43.45;23.63;;;;;;;;;;5074738;28;20040;-64
2021/12/08 09:41:59;;;;;;;45.80;24.98;;;;;;;;;;5063965;28;20123;-64
2021/12/08 09:44:27;;;;;;;43.03;22.80;;;;;;;;;;5070809;28;20486;-64
2021/12/08 09:46:52;;;;;;;42.03;23.73;;;;;;;;;;5074627;28;20036;-64
2021/12/08 09:49:23;;;;;;;42.03;25.35;;;;;;;;;;5074447;28;20049;-64
2021/12/08 09:51:49;;;;;;;44.30;24.85;;;;;;;;;;5074436;28;20135;-63
2021/12/08 09:54:15;;;;;;;49.55;23.58;;;;;;;;;;5073824;28;20120;-73
2021/12/08 09:56:41;;;;;;;38.75;19.50;;;;;;;;;;5074300;28;20456;-73
2021/12/08 09:59:09;;;;;;;38.75;20.80;;;;;;;;;;5074221;28;20134;-73
2021/12/08 10:01:37;;;;;;;43.33;27.08;;;;;;;;;;5074234;28;20037;-73
2021/12/08 10:04:03;;;;;;;42.67;21.90;;;;;;;;;;5074015;28;20028;-73
2021/12/08 10:06:29;;;;;;;40.00;29.23;;;;;;;;;;5074217;28;20492;-73
2021/12/08 10:08:57;;;;;;;44.33;27.63;;;;;;;;;;5074154;28;20111;-73
2021/12/08 10:11:23;;;;;;;29.98;17.33;;;;;;;;;;5074015;28;20040;-74
2021/12/08 10:13:49;;;;;;;29.42;17.33;;;;;;;;;;5074124;28;20044;-73
2021/12/08 10:16:14;;;;;;;31.27;18.70;;;;;;;;;;5074121;28;20398;-73
2021/12/08 10:18:40;;;;;;;30.92;17.80;;;;;;;;;;5073836;28;20032;-73
2021/12/08 10:21:06;;;;;;;27.10;17.25;;;;;;;;;;5073915;28;20158;-73
2021/12/08 10:23:38;;;;;;;32.33;18.50;;;;;;;;;;5073736;28;20108;-73
2021/12/08 10:26:03;;;;;;;39.40;24.20;;;;;;;;;;5073457;28;20086;-73
2021/12/08 10:28:38;;;;;;;41.22;25.58;;;;;;;;;;5073833;28;20028;-73
2021/12/08 10:31:04;;;;;;;32.47;17.92;;;;;;;;;;5073895;28;20087;-73
2021/12/08 10:36:36;;;;;;;34.63;20.75;;;;;;;;;;5073797;28;20039;-73
2021/12/08 10:39:07;;;;;;;33.45;21.25;;;;;;;;;;5073792;28;20040;-73
2021/12/08 10:41:50;;;;;;;29.30;16.65;;;;;;;;;;5073529;28;20044;-73
2021/12/08 10:44:21;;;;;;;28.60;17.38;;;;;;;;;;5073552;28;20033;-73
2021/12/08 10:46:49;;;;;;;36.83;24.77;;;;;;;;;;5073723;28;20447;-72
2021/12/08 10:49:22;;;;;;;25.98;15.18;;;;;;;;;;5073504;28;20082;-75
2021/12/08 10:54:36;;;;;;;27.98;17.08;;;;;;;;;;5021792;28;20129;-72
2021/12/08 10:57:04;;;;;;;37.20;22.30;;;;;;;;;;5053327;28;20120;-72
2021/12/08 10:59:48;;;;;;;47.53;22.30;;;;;;;;;;5035498;28;20045;-73
2021/12/08 11:02:33;;;;;;;36.45;20.40;;;;;;;;;;5053075;28;20048;-73
2021/12/08 11:04:58;;;;;;;30.15;18.10;;;;;;;;;;5053056;28;20119;-73
2021/12/08 11:07:24;;;;;;;35.45;21.45;;;;;;;;;;5053144;28;20523;-73
2021/12/08 11:09:49;;;;;;;40.70;23.75;;;;;;;;;;5053050;28;20036;-75
2021/12/08 11:12:14;;;;;;;34.17;18.90;;;;;;;;;;5052956;28;20086;-74
2021/12/08 11:14:47;;;;;;;39.38;21.80;;;;;;;;;;5051848;28;20048;-73
2021/12/08 11:17:23;;;;;;;41.50;25.17;;;;;;;;;;5053125;28;20040;-73
2021/12/08 11:19:49;;;;;;;45.22;24.42;;;;;;;;;;5053012;28;20041;-73
2021/12/08 11:22:16;;;;;;;34.15;19.35;;;;;;;;;;5053246;28;20486;-73
2021/12/08 11:24:55;;;;;;;33.15;19.23;;;;;;;;;;5053044;28;20044;-73
2021/12/08 11:27:29;;;;;;;32.87;17.93;;;;;;;;;;5053017;28;20059;-73
2021/12/08 11:29:54;;;;;;;28.52;18.42;;;;;;;;;;5052877;28;20279;-73
2021/12/08 11:32:22;;;;;;;39.42;22.15;;;;;;;;;;5052917;28;20083;-73
2021/12/08 11:34:48;;;;;;;53.28;28.98;;;;;;;;;;5053072;28;20466;-73
2021/12/08 11:37:24;;;;;;;29.90;18.15;;;;;;;;;;5052910;28;20025;-73
2021/12/08 11:39:52;;;;;;;35.50;19.50;;;;;;;;;;5052956;28;20052;-73
2021/12/08 11:42:22;;;;;;;33.05;18.95;;;;;;;;;;5052707;28;20037;-73
2021/12/08 11:44:53;;;;;;;40.75;21.88;;;;;;;;;;5052864;28;20037;-74
2021/12/08 11:47:22;;;;;;;33.35;18.42;;;;;;;;;;5035020;28;20476;-75
2021/12/08 11:49:57;;;;;;;39.25;22.30;;;;;;;;;;5052695;28;20444;-75
2021/12/08 11:52:25;;;;;;;40.58;24.10;;;;;;;;;;5052757;28;20041;-74
2021/12/08 11:55:09;;;;;;;29.38;16.17;;;;;;;;;;5069129;28;20052;-74
2021/12/08 11:57:37;;;;;;;29.48;17.95;;;;;;;;;;5076580;28;20123;-74
2021/12/08 12:00:02;;;;;;;29.67;18.98;;;;;;;;;;5076656;28;20435;-74
2021/12/08 12:02:38;;;;;;;30.05;18.00;;;;;;;;;;5076482;28;20033;-74
2021/12/08 12:05:05;;;;;;;29.40;18.05;;;;;;;;;;5076488;28;20113;-74
2021/12/08 12:07:31;;;;;;;31.50;18.77;;;;;;;;;;5076643;28;20111;-74
2021/12/08 12:09:56;;;;;;;36.38;22.85;;;;;;;;;;5076463;28;20090;-73
2021/12/08 12:12:22;;;;;;;29.05;16.95;;;;;;;;;;5076464;28;20474;-73
2021/12/08 12:14:48;;;;;;;31.40;19.00;;;;;;;;;;5058306;28;20076;-74
2021/12/08 12:17:14;;;;;;;28.98;16.85;;;;;;;;;;5076392;28;20033;-74
2021/12/08 12:19:51;;;;;;;30.45;18.65;;;;;;;;;;5076265;28;20032;-76
2021/12/08 12:22:19;;;;;;;45.03;26.23;;;;;;;;;;5076040;28;20040;-76
2021/12/08 12:24:47;;;;;;;39.83;25.60;;;;;;;;;;5076276;28;20048;-75
2021/12/08 12:27:45;;;;;;;88.82;50.05;;;;;;;;;;5076188;28;20174;-74
2021/12/08 12:30:13;;;;;;;27.92;16.80;;;;;;;;;;5031575;28;20059;-74
2021/12/08 12:32:42;;;;;;;26.02;16.90;;;;;;;;;;5076104;28;20031;-74
2021/12/08 12:35:12;;;;;;;21.60;14.57;;;;;;;;;;5076111;28;20375;-74
2021/12/08 12:37:38;;;;;;;32.40;18.15;;;;;;;;;;5076182;28;20040;-74
2021/12/08 12:40:06;;;;;;;30.63;20.50;;;;;;;;;;5075936;28;20390;-74
2021/12/08 12:42:48;;;;;;;29.38;18.52;;;;;;;;;;5058027;28;20052;-75
2021/12/08 12:45:15;;;;;;;31.55;18.40;;;;;;;;;;5075797;28;20029;-76
2021/12/08 12:47:41;;;;;;;29.33;19.83;;;;;;;;;;5075746;28;20421;-75
2021/12/08 12:50:12;;;;;;;20.90;14.75;;;;;;;;;;5075727;28;20479;-75
2021/12/08 12:52:39;;;;;;;23.55;15.35;;;;;;;;;;5075656;28;20041;-75
2021/12/08 12:55:11;;;;;;;31.83;19.23;;;;;;;;;;5075573;28;20098;-75
2021/12/08 12:58:09;;;;;;;24.60;17.40;;;;;;;;;;5057562;28;20066;-75
2021/12/08 13:00:44;;;;;;;27.50;19.50;;;;;;;;;;5030290;28;20045;-74
2021/12/08 13:03:29;;;;;;;26.02;16.25;;;;;;;;;;5075260;28;20440;-74
2021/12/08 13:05:55;;;;;;;23.55;14.90;;;;;;;;;;5074196;28;20448;-74
2021/12/08 13:08:30;;;;;;;23.25;16.42;;;;;;;;;;5075389;28;20063;-74
2021/12/08 13:10:56;;;;;;;24.65;15.95;;;;;;;;;;5075376;28;20127;-74
2021/12/08 13:13:22;;;;;;;27.38;18.00;;;;;;;;;;5057480;28;20031;-74
2021/12/08 13:15:47;;;;;;;18.95;14.30;;;;;;;;;;5075304;28;20033;-74
2021/12/08 13:18:14;;;;;;;25.70;17.40;;;;;;;;;;5075253;28;20029;-73
2021/12/08 13:20:44;;;;;;;22.23;15.35;;;;;;;;;;5075290;28;20075;-73
2021/12/08 13:23:13;;;;;;;23.08;14.60;;;;;;;;;;5075224;28;20040;-73
2021/12/08 13:28:21;;;;;;;26.67;18.52;;;;;;;;;;5075117;28;20402;-74
2021/12/08 13:30:49;;;;;;;43.83;29.92;;;;;;;;;;5075147;28;20475;-73
2021/12/08 13:33:26;;;;;;;24.92;17.40;;;;;;;;;;5075150;28;20050;-73
2021/12/08 13:35:53;;;;;;;32.28;22.50;;;;;;;;;;5074853;28;20488;-71
2021/12/08 13:38:18;;;;;;;28.13;19.50;;;;;;;;;;5074852;28;20042;-72
2021/12/08 13:40:49;;;;;;;45.72;31.98;;;;;;;;;;5074747;28;20131;-72
2021/12/08 13:43:33;;;;;;;43.03;30.48;;;;;;;;;;5074717;28;20047;-72
2021/12/08 13:45:58;;;;;;;38.53;24.35;;;;;;;;;;5074706;28;20032;-71
2021/12/08 13:48:24;;;;;;;26.77;16.88;;;;;;;;;;5074622;28;20386;-71
2021/12/08 13:50:50;;;;;;;48.70;28.00;;;;;;;;;;5074517;28;20387;-71
2021/12/08 13:53:15;;;;;;;25.80;16.10;;;;;;;;;;5074594;28;20107;-71
2021/12/08 13:55:43;;;;;;;24.42;15.75;;;;;;;;;;5074327;28;20522;-65
2021/12/08 13:58:11;;;;;;;23.58;15.52;;;;;;;;;;5074610;28;20040;-65
2021/12/08 14:00:39;;;;;;;23.30;14.48;;;;;;;;;;5074130;28;20491;-66
2021/12/08 14:03:06;;;;;;;22.00;14.75;;;;;;;;;;5074173;28;20484;-67
2021/12/08 14:05:33;;;;;;;23.23;16.30;;;;;;;;;;5074263;28;20064;-67
2021/12/08 14:08:09;;;;;;;48.45;40.60;;;;;;;;;;5074200;28;20025;-67
2021/12/08 14:10:40;;;;;;;45.65;29.48;;;;;;;;;;5074211;28;20483;-67
2021/12/08 14:13:10;;;;;;;33.17;22.42;;;;;;;;;;5074095;28;20459;-66
2021/12/08 14:15:41;;;;;;;34.83;22.50;;;;;;;;;;5073868;28;20039;-67
2021/12/08 14:18:14;;;;;;;52.45;38.35;;;;;;;;;;5055975;28;20032;-67
2021/12/08 14:20:40;;;;;;;25.45;18.10;;;;;;;;;;5074010;28;20119;-67
2021/12/08 14:23:06;;;;;;;22.33;14.93;;;;;;;;;;5073799;28;20134;-67
2021/12/08 14:25:31;;;;;;;26.25;17.67;;;;;;;;;;5073959;28;20032;-67
2021/12/08 14:27:57;;;;;;;23.88;15.52;;;;;;;;;;5073878;28;20024;-67
2021/12/08 14:30:22;;;;;;;26.55;15.68;;;;;;;;;;5073839;28;20111;-67
2021/12/08 14:33:04;;;;;;;25.13;17.35;;;;;;;;;;5055970;28;20481;-67
2021/12/08 14:35:30;;;;;;;40.90;24.92;;;;;;;;;;5073797;28;20043;-67
2021/12/08 14:37:59;;;;;;;28.73;19.40;;;;;;;;;;5055995;28;20119;-67
2021/12/08 14:40:25;;;;;;;23.53;14.97;;;;;;;;;;5073668;28;20051;-67
2021/12/08 14:42:50;;;;;;;23.25;15.50;;;;;;;;;;5055560;28;20033;-67
2021/12/08 14:45:16;;;;;;;37.03;21.75;;;;;;;;;;5039055;28;20020;-67
2021/12/08 14:47:46;;;;;;;22.63;15.57;;;;;;;;;;5055620;28;20379;-67
2021/12/08 14:50:19;;;;;;;29.15;18.17;;;;;;;;;;5073389;28;20040;-67
2021/12/08 14:52:45;;;;;;;112.97;57.63;;;;;;;;;;5055697;28;20131;-67
2021/12/08 14:55:13;;;;;;;28.77;19.20;;;;;;;;;;5073777;28;20218;-67
2021/12/08 14:57:40;;;;;;;26.65;17.15;;;;;;;;;;5073384;28;20078;-67
2021/12/08 15:00:12;;;;;;;26.55;18.35;;;;;;;;;;5073341;28;20082;-67
2021/12/08 15:02:41;;;;;;;27.80;17.90;;;;;;;;;;5073188;28;20037;-67
2021/12/08 15:05:18;;;;;;;37.55;28.67;;;;;;;;;;5038730;28;20378;-67
2021/12/08 15:07:44;;;;;;;24.85;17.70;;;;;;;;;;5055361;28;20059;-67
2021/12/08 15:10:12;;;;;;;31.15;21.20;;;;;;;;;;5073118;28;20479;-67
2021/12/08 15:12:40;;;;;;;24.25;15.60;;;;;;;;;;5073111;28;20067;-67